createdAt,value
2023-02-03T00:01:32.307Z,102138.78
2023-02-03T00:04:19.015Z,102145.63
2023-02-03T00:07:05.654Z,102149.78
2023-02-03T00:09:52.266Z,102153.28
2023-02-03T00:12:40.210Z,102153.28
2023-02-03T00:15:26.835Z,102157.22
2023-02-03T00:18:13.126Z,102156.22
2023-02-03T00:20:59.762Z,102156.91
2023-02-03T00:23:46.622Z,102159.94
2023-02-03T00:26:32.975Z,102159.78
2023-02-03T00:29:25.687Z,102168.44
2023-02-03T00:32:12.631Z,102167.59
2023-02-03T00:34:59.417Z,102170.13
2023-02-03T00:37:51.902Z,102183.84
2023-02-03T00:40:38.148Z,102188.00
2023-02-03T00:43:24.786Z,102195.75
2023-02-03T00:46:14.768Z,102180.28
2023-02-03T00:49:01.391Z,102196.84
2023-02-03T00:51:48.478Z,102201.13
2023-02-03T00:54:35.097Z,102203.19
2023-02-03T00:57:22.726Z,102187.94
2023-02-03T01:00:10.720Z,102182.56
2023-02-03T01:02:59.117Z,102159.97
2023-02-03T01:05:45.894Z,102169.44
2023-02-03T01:08:32.463Z,102190.09
2023-02-03T01:11:20.844Z,102191.06
2023-02-03T01:14:08.564Z,102178.34
2023-02-03T01:16:56.409Z,102155.38
2023-02-03T01:19:45.099Z,102160.25
2023-02-03T01:22:31.990Z,102181.59
2023-02-03T01:25:18.214Z,102159.44
2023-02-03T01:28:05.991Z,102175.28
2023-02-03T01:30:52.642Z,102188.16
2023-02-03T01:33:40.892Z,102188.81
2023-02-03T01:36:32.065Z,102168.06
2023-02-03T01:39:18.716Z,102155.16
2023-02-03T01:42:05.907Z,102137.03
2023-02-03T01:44:52.896Z,102127.91
2023-02-03T01:47:45.945Z,102137.50
2023-02-03T01:50:35.417Z,102133.69
2023-02-03T01:53:23.755Z,102128.94
2023-02-03T01:56:10.786Z,102129.53
2023-02-03T01:59:00.221Z,102142.38
2023-02-03T02:01:47.875Z,102159.34
2023-02-03T02:04:44.146Z,102155.41
2023-02-03T02:07:33.567Z,102151.91
2023-02-03T02:10:22.175Z,102147.81
2023-02-03T02:13:08.409Z,102143.72
2023-02-03T02:16:01.564Z,102152.50
2023-02-03T02:19:01.143Z,102167.25
2023-02-03T02:21:59.056Z,102168.06
2023-02-03T02:25:15.621Z,102179.59
2023-02-03T02:28:50.751Z,102177.78
2023-02-03T02:31:51.686Z,102181.13
2023-02-03T02:34:50.409Z,102185.84
2023-02-03T02:37:45.902Z,102180.81
2023-02-03T02:40:38.891Z,102180.97
2023-02-03T02:43:37.406Z,102178.47
2023-02-03T02:46:30.015Z,102185.13
2023-02-03T02:49:24.494Z,102169.34
2023-02-03T02:52:14.218Z,102180.03
2023-02-03T02:55:06.527Z,102168.09
2023-02-03T02:57:56.786Z,102165.63
2023-02-03T03:00:45.816Z,102153.47
2023-02-03T03:03:33.143Z,102152.56
2023-02-03T03:06:27.198Z,102156.50
2023-02-03T03:09:17.972Z,102144.09
2023-02-03T03:12:07.987Z,102140.38
2023-02-03T03:14:58.979Z,102125.38
2023-02-03T03:17:51.004Z,102143.03
2023-02-03T03:20:42.868Z,102133.25
2023-02-03T03:23:34.391Z,102141.56
2023-02-03T03:26:28.737Z,102156.63
2023-02-03T03:29:19.838Z,102163.34
2023-02-03T03:32:07.024Z,102152.34
2023-02-03T03:34:53.751Z,102163.88
2023-02-03T03:37:45.053Z,102170.19
2023-02-03T03:40:37.354Z,102171.47
2023-02-03T03:43:29.341Z,102181.28
2023-02-03T03:46:22.660Z,102179.31
2023-02-03T03:49:11.710Z,102180.50
2023-02-03T03:52:03.523Z,102184.84
2023-02-03T03:54:52.241Z,102182.41
2023-02-03T03:57:45.160Z,102181.56
2023-02-03T04:00:34.699Z,102183.44
2023-02-03T04:03:25.960Z,102202.44
2023-02-03T04:06:14.781Z,102195.59
2023-02-03T04:09:02.176Z,102173.50
2023-02-03T04:12:05.950Z,102183.59
2023-02-03T04:14:53.941Z,102200.56
2023-02-03T04:17:40.425Z,102187.59
2023-02-03T04:20:27.208Z,102187.38
2023-02-03T04:23:14.208Z,102209.06
2023-02-03T04:26:02.152Z,102202.88
2023-02-03T04:28:48.959Z,102189.66
2023-02-03T04:31:38.568Z,102193.09
2023-02-03T04:34:25.244Z,102195.03
2023-02-03T04:37:11.818Z,102187.09
2023-02-03T04:39:58.252Z,102183.09
2023-02-03T04:42:44.964Z,102164.19
2023-02-03T04:45:31.547Z,102177.53
2023-02-03T04:48:19.253Z,102194.91
2023-02-03T04:51:07.732Z,102202.03
2023-02-03T04:53:54.527Z,102199.81
2023-02-03T04:56:41.033Z,102192.59
2023-02-03T04:59:28.027Z,102175.84
2023-02-03T05:02:14.700Z,102184.19
2023-02-03T05:05:02.439Z,102187.31
2023-02-03T05:07:49.085Z,102190.72
2023-02-03T05:10:35.759Z,102199.66
2023-02-03T05:13:22.323Z,102196.13
2023-02-03T05:16:08.747Z,102171.66
2023-02-03T05:18:55.575Z,102156.56
2023-02-03T05:21:43.044Z,102161.16
2023-02-03T05:24:29.424Z,102175.19
2023-02-03T05:27:16.099Z,102183.13
2023-02-03T05:30:02.813Z,102198.84
2023-02-03T05:32:50.174Z,102194.97
2023-02-03T05:35:36.729Z,102183.97
2023-02-03T05:38:25.452Z,102192.00
2023-02-03T05:41:31.451Z,102178.03
2023-02-03T05:44:18.128Z,102176.06
2023-02-03T05:47:05.429Z,102182.84
2023-02-03T05:49:52.186Z,102174.03
2023-02-03T05:52:38.450Z,102174.34
2023-02-03T05:55:26.357Z,102184.38
2023-02-03T05:58:13.282Z,102175.09
2023-02-03T06:00:59.892Z,102193.38
2023-02-03T06:03:46.928Z,102190.19
2023-02-03T06:06:34.340Z,102185.47
2023-02-03T06:09:21.028Z,102174.13
2023-02-03T06:12:09.216Z,102177.38
2023-02-03T06:14:55.684Z,102188.75
2023-02-03T06:17:45.312Z,102194.28
2023-02-03T06:20:31.905Z,102191.97
2023-02-03T06:23:19.425Z,102185.78
2023-02-03T06:26:06.501Z,102183.69
2023-02-03T06:28:56.437Z,102179.84
2023-02-03T06:31:43.074Z,102181.84
2023-02-03T06:34:29.556Z,102180.97
2023-02-03T06:37:16.465Z,102188.22
2023-02-03T06:40:04.374Z,102208.13
2023-02-03T06:42:51.192Z,102209.06
2023-02-03T06:45:39.324Z,102215.75
2023-02-03T06:48:25.875Z,102210.81
2023-02-03T06:51:12.444Z,102213.47
2023-02-03T06:53:59.791Z,102208.06
2023-02-03T06:56:46.051Z,102208.63
2023-02-03T06:59:32.672Z,102211.84
2023-02-03T07:02:20.876Z,102213.72
2023-02-03T07:05:08.406Z,102210.88
2023-02-03T07:07:55.358Z,102221.63
2023-02-03T07:10:41.919Z,102222.41
2023-02-03T07:13:28.752Z,102214.72
2023-02-03T07:16:15.764Z,102216.41
2023-02-03T07:19:04.180Z,102224.06
2023-02-03T07:21:50.862Z,102229.59
2023-02-03T07:24:38.002Z,102231.22
2023-02-03T07:27:24.440Z,102236.44
2023-02-03T07:30:12.639Z,102221.16
2023-02-03T07:32:59.884Z,102230.03
2023-02-03T07:35:53.045Z,102225.28
2023-02-03T07:38:39.609Z,102209.50
2023-02-03T07:41:26.310Z,102228.97
2023-02-03T07:44:13.080Z,102255.25
2023-02-03T07:46:59.626Z,102248.19
2023-02-03T07:49:46.201Z,102255.56
2023-02-03T07:52:34.102Z,102244.47
2023-02-03T07:55:20.701Z,102236.56
2023-02-03T07:58:07.781Z,102244.59
2023-02-03T08:00:54.413Z,102258.50
2023-02-03T08:03:41.140Z,102261.44
2023-02-03T08:06:27.641Z,102265.34
2023-02-03T08:09:15.559Z,102263.53
2023-02-03T08:12:02.460Z,102266.78
2023-02-03T08:14:48.866Z,102267.56
2023-02-03T08:17:35.308Z,102262.56
2023-02-03T08:20:22.547Z,102270.22
2023-02-03T08:23:08.906Z,102280.66
2023-02-03T08:25:56.947Z,102289.03
2023-02-03T08:28:43.509Z,102298.06
2023-02-03T08:31:30.261Z,102288.88
2023-02-03T08:34:16.799Z,102281.63
2023-02-03T08:37:03.483Z,102295.94
2023-02-03T08:39:49.954Z,102293.31
2023-02-03T08:42:38.105Z,102297.28
2023-02-03T08:45:24.744Z,102318.94
2023-02-03T08:48:11.279Z,102299.66
2023-02-03T08:50:57.800Z,102311.06
2023-02-03T08:53:44.631Z,102317.44
2023-02-03T08:56:31.186Z,102307.69
2023-02-03T08:59:20.006Z,102321.75
2023-02-03T09:02:07.665Z,102343.19
2023-02-03T09:04:54.380Z,102336.34
2023-02-03T09:07:41.032Z,102331.41
2023-02-03T09:10:28.050Z,102337.91
2023-02-03T09:13:14.912Z,102361.38
2023-02-03T09:16:02.898Z,102340.91
2023-02-03T09:18:49.975Z,102339.16
2023-02-03T09:21:44.711Z,102362.75
2023-02-03T09:24:34.617Z,102362.34
2023-02-03T09:27:21.310Z,102349.09
2023-02-03T09:30:08.780Z,102374.13
2023-02-03T09:32:56.623Z,102348.47
2023-02-03T09:35:43.254Z,102351.09
2023-02-03T09:38:30.208Z,102360.03
2023-02-03T09:41:30.997Z,102366.34
2023-02-03T09:44:22.789Z,102355.06
2023-02-03T09:47:16.507Z,102372.47
2023-02-03T09:50:08.469Z,102379.91
2023-02-03T09:52:56.661Z,102380.44
2023-02-03T09:55:45.932Z,102386.31
2023-02-03T09:58:35.388Z,102387.59
2023-02-03T10:01:25.387Z,102413.28
2023-02-03T10:04:24.541Z,102406.91
2023-02-03T10:07:20.301Z,102404.09
2023-02-03T10:10:16.971Z,102413.13
2023-02-03T10:13:24.219Z,102428.75
2023-02-03T10:16:26.534Z,102423.34
2023-02-03T10:19:17.822Z,102415.34
2023-02-03T10:22:07.151Z,102421.44
2023-02-03T10:25:00.165Z,102431.72
2023-02-03T10:27:47.042Z,102424.84
2023-02-03T10:30:45.338Z,102425.75
2023-02-03T10:33:34.472Z,102428.94
2023-02-03T10:36:22.480Z,102441.38
2023-02-03T10:39:21.040Z,102440.53
2023-02-03T10:42:11.874Z,102445.28
2023-02-03T10:45:00.054Z,102450.41
2023-02-03T10:47:51.481Z,102441.22
2023-02-03T10:50:45.266Z,102448.19
2023-02-03T10:53:35.298Z,102454.69
2023-02-03T10:56:26.365Z,102461.13
2023-02-03T10:59:29.614Z,102466.78
2023-02-03T11:02:25.654Z,102459.75
2023-02-03T11:05:21.709Z,102450.88
2023-02-03T11:08:15.865Z,102451.31
2023-02-03T11:11:06.864Z,102465.75
2023-02-03T11:13:55.733Z,102460.53
2023-02-03T11:16:47.269Z,102464.53
2023-02-03T11:19:33.990Z,102458.16
2023-02-03T11:22:32.561Z,102471.13
2023-02-03T11:25:25.901Z,102468.47
2023-02-03T11:28:14.372Z,102463.53
2023-02-03T11:31:01.099Z,102466.25
2023-02-03T11:33:56.134Z,102481.66
2023-02-03T11:36:43.179Z,102487.41
2023-02-03T11:39:35.582Z,102479.59
2023-02-03T11:42:23.598Z,102477.03
2023-02-03T11:45:15.404Z,102471.03
2023-02-03T11:48:07.551Z,102467.81
2023-02-03T11:51:02.019Z,102487.34
2023-02-03T11:54:03.526Z,102480.75
2023-02-03T11:57:09.602Z,102474.97
2023-02-03T12:00:05.664Z,102467.75
2023-02-03T12:03:32.873Z,102467.91
2023-02-03T12:06:50.802Z,102466.09
2023-02-03T12:09:51.903Z,102472.38
2023-02-03T12:12:49.698Z,102476.28
2023-02-03T12:15:52.585Z,102486.34
2023-02-03T12:18:51.265Z,102474.22
2023-02-03T12:21:47.486Z,102484.19
2023-02-03T12:24:44.184Z,102488.00
2023-02-03T12:27:42.700Z,102485.19
2023-02-03T12:30:36.216Z,102480.06
2023-02-03T12:33:27.687Z,102465.50
2023-02-03T12:36:19.690Z,102464.94
2023-02-03T12:39:18.981Z,102465.16
2023-02-03T12:42:13.994Z,102483.91
2023-02-03T12:45:06.790Z,102484.38
2023-02-03T12:47:57.832Z,102493.00
2023-02-03T12:50:50.340Z,102487.97
2023-02-03T12:53:42.616Z,102489.31
2023-02-03T12:56:36.740Z,102493.56
2023-02-03T12:59:26.786Z,102510.38
2023-02-03T13:02:20.194Z,102498.94
2023-02-03T13:05:17.158Z,102512.41
2023-02-03T13:08:13.058Z,102515.75
2023-02-03T13:11:12.923Z,102520.41
2023-02-03T13:14:06.911Z,102521.19
2023-02-03T13:16:58.774Z,102516.28
2023-02-03T13:19:48.869Z,102506.38
2023-02-03T13:22:35.570Z,102525.44
2023-02-03T13:25:26.815Z,102523.41
2023-02-03T13:28:24.484Z,102544.34
2023-02-03T13:31:25.186Z,102542.19
2023-02-03T13:34:26.004Z,102539.91
2023-02-03T13:37:27.187Z,102541.16
2023-02-03T13:40:22.149Z,102549.19
2023-02-03T13:43:22.976Z,102549.50
2023-02-03T13:46:26.708Z,102558.47
2023-02-03T13:49:24.414Z,102553.06
2023-02-03T13:52:26.039Z,102548.00
2023-02-03T13:55:29.398Z,102556.25
2023-02-03T13:58:27.663Z,102533.31
2023-02-03T14:01:33.791Z,102538.72
2023-02-03T14:04:51.849Z,102541.44
2023-02-03T14:07:40.542Z,102540.91
2023-02-03T14:10:27.258Z,102539.56
2023-02-03T14:13:21.434Z,102549.53
2023-02-03T14:16:16.433Z,102546.72
2023-02-03T14:19:05.033Z,102552.41
2023-02-03T14:21:55.581Z,102567.59
2023-02-03T14:24:46.541Z,102567.25
2023-02-03T14:27:33.683Z,102574.22
2023-02-03T14:30:20.479Z,102581.72
2023-02-03T14:33:07.042Z,102584.31
2023-02-03T14:35:55.091Z,102592.13
2023-02-03T14:38:42.556Z,102599.06
2023-02-03T14:41:41.512Z,102609.25
2023-02-03T14:44:36.943Z,102604.84
2023-02-03T14:47:36.246Z,102597.66
2023-02-03T14:50:35.976Z,102591.81
2023-02-03T14:53:38.391Z,102594.28
2023-02-03T14:56:55.737Z,102593.06
2023-02-03T14:59:45.879Z,102593.03
2023-02-03T15:02:34.944Z,102598.97
2023-02-03T15:05:39.942Z,102611.97
2023-02-03T15:08:49.136Z,102609.19
2023-02-03T15:11:35.759Z,102617.75
2023-02-03T15:14:25.308Z,102623.00
2023-02-03T15:17:24.519Z,102627.06
2023-02-03T15:20:32.071Z,102624.34
2023-02-03T15:23:21.496Z,102631.72
2023-02-03T15:26:14.998Z,102638.69
2023-02-03T15:29:03.444Z,102649.59
2023-02-03T15:31:55.182Z,102647.13
2023-02-03T15:34:45.917Z,102641.63
2023-02-03T15:37:38.686Z,102642.81
2023-02-03T15:40:39.299Z,102631.34
2023-02-03T15:43:32.773Z,102635.69
2023-02-03T15:46:25.594Z,102644.84
2023-02-03T15:49:18.918Z,102633.91
2023-02-03T15:52:11.946Z,102639.69
2023-02-03T15:55:07.589Z,102651.59
2023-02-03T15:57:54.325Z,102648.66
2023-02-03T16:00:42.279Z,102656.41
2023-02-03T16:03:35.079Z,102646.41
2023-02-03T16:06:27.743Z,102651.09
2023-02-03T16:09:34.499Z,102659.25
2023-02-03T16:12:24.944Z,102664.22
2023-02-03T16:15:23.621Z,102652.81
2023-02-03T16:18:18.450Z,102657.38
2023-02-03T16:21:06.620Z,102657.53
2023-02-03T16:23:53.450Z,102656.59
2023-02-03T16:26:40.055Z,102660.44
2023-02-03T16:29:47.679Z,102671.75
2023-02-03T16:32:52.018Z,102689.66
2023-02-03T16:35:57.818Z,102695.09
2023-02-03T16:39:03.847Z,102708.84
2023-02-03T16:42:08.195Z,102698.88
2023-02-03T16:45:12.721Z,102690.00
2023-02-03T16:48:16.919Z,102697.03
2023-02-03T16:51:08.232Z,102712.66
2023-02-03T16:53:54.727Z,102726.66
2023-02-03T16:56:41.628Z,102734.66
2023-02-03T16:59:28.506Z,102729.88
2023-02-03T17:02:16.156Z,102729.97
2023-02-03T17:05:03.211Z,102739.34
2023-02-03T17:07:51.323Z,102735.41
2023-02-03T17:10:40.782Z,102737.63
2023-02-03T17:13:27.385Z,102739.38
2023-02-03T17:16:17.535Z,102739.25
2023-02-03T17:19:04.363Z,102757.00
2023-02-03T17:21:51.570Z,102763.59
2023-02-03T17:24:40.174Z,102781.47
2023-02-03T17:27:26.925Z,102798.38
2023-02-03T17:30:14.847Z,102811.34
2023-02-03T17:33:01.984Z,102811.81
2023-02-03T17:35:48.322Z,102814.09
2023-02-03T17:54:11.930Z,102844.16
2023-02-03T17:56:59.976Z,102841.34
2023-02-03T17:59:47.936Z,102847.69
2023-02-03T18:02:34.701Z,102840.53
2023-02-03T18:05:21.721Z,102848.19
2023-02-03T18:08:16.248Z,102872.41
2023-02-03T18:11:04.557Z,102889.13
2023-02-03T18:13:52.678Z,102892.59
2023-02-03T18:16:39.558Z,102893.03
2023-02-03T18:19:26.059Z,102902.09
2023-02-03T18:22:12.605Z,102898.91
2023-02-03T18:24:59.334Z,102911.84
2023-02-03T18:27:46.054Z,102921.59
2023-02-03T18:30:34.388Z,102917.66
2023-02-03T18:33:20.856Z,102928.81
2023-02-03T18:36:08.490Z,102936.94
2023-02-03T18:38:55.286Z,102945.44
2023-02-03T18:41:41.960Z,102963.06
2023-02-03T18:44:28.512Z,102961.34
2023-02-03T18:47:16.559Z,102951.81
2023-02-03T18:50:03.306Z,102955.97
2023-02-03T18:52:54.514Z,102952.06
2023-02-03T18:55:42.421Z,102954.56
2023-02-03T18:58:29.230Z,102949.91
2023-02-03T19:01:24.270Z,102954.16
2023-02-03T19:04:14.051Z,102959.03
2023-02-03T19:07:01.021Z,102959.09
2023-02-03T19:09:48.345Z,102956.38
2023-02-03T19:12:35.317Z,102957.34
2023-02-03T19:15:22.118Z,102968.88
2023-02-03T19:18:09.438Z,102966.16
2023-02-03T19:20:57.661Z,102963.63
2023-02-03T19:23:44.258Z,102963.28
2023-02-03T19:26:31.503Z,102971.31
2023-02-03T19:29:18.344Z,102959.75
2023-02-03T19:32:05.393Z,102968.56
2023-02-03T19:34:52.233Z,102971.28
2023-02-03T19:37:40.287Z,102978.84
2023-02-03T19:40:27.108Z,102967.91
2023-02-03T19:43:14.150Z,102966.84
2023-02-03T19:46:02.172Z,102962.72
2023-02-03T19:48:49.309Z,102957.03
2023-02-03T19:51:36.256Z,102961.50
2023-02-03T19:54:24.799Z,102964.97
2023-02-03T19:57:11.283Z,102964.56
2023-02-03T19:59:57.904Z,102964.25
2023-02-03T20:02:44.577Z,102974.81
2023-02-03T20:05:31.738Z,102979.16
2023-02-03T20:08:18.642Z,102989.97
2023-02-03T20:11:06.735Z,102981.38
2023-02-03T20:13:53.912Z,102997.47
2023-02-03T20:16:40.233Z,103016.59
2023-02-03T20:19:26.684Z,103011.44
2023-02-03T20:22:13.294Z,103008.59
2023-02-03T20:25:00.328Z,103009.97
2023-02-03T20:27:48.804Z,103018.22
2023-02-03T20:30:36.042Z,103017.34
2023-02-03T20:33:22.700Z,103015.13
2023-02-03T20:36:11.479Z,103031.75
2023-02-03T20:38:58.182Z,103033.16
2023-02-03T20:41:45.054Z,103031.31
2023-02-03T20:44:33.421Z,103037.78
2023-02-03T20:47:22.139Z,103040.03
2023-02-03T20:50:15.801Z,103042.81
2023-02-03T20:53:03.320Z,103039.28
2023-02-03T20:55:51.304Z,103044.28
2023-02-03T20:58:37.909Z,103022.53
2023-02-03T21:01:26.068Z,103025.56
2023-02-03T21:04:31.604Z,103034.41
2023-02-03T21:07:19.056Z,103048.16
2023-02-03T21:10:20.587Z,103050.06
2023-02-03T21:13:20.665Z,103056.09
2023-02-03T21:16:17.371Z,103061.25
2023-02-03T21:19:05.922Z,103053.38
2023-02-03T21:21:53.112Z,103060.31
2023-02-03T21:24:42.917Z,103065.09
2023-02-03T21:27:31.194Z,103064.06
2023-02-03T21:30:28.245Z,103062.06
2023-02-03T21:33:30.717Z,103069.16
2023-02-03T21:36:21.225Z,103052.13
2023-02-03T21:39:26.633Z,103056.91
2023-02-03T21:45:38.473Z,103068.97
2023-02-03T21:48:30.900Z,103066.44
2023-02-03T21:51:20.629Z,103076.91
2023-02-03T21:54:29.457Z,103072.94
2023-02-03T21:57:16.349Z,103077.84
2023-02-03T22:00:03.515Z,103076.16
2023-02-03T22:03:00.779Z,103070.53
2023-02-03T22:05:48.411Z,103081.13
2023-02-03T22:08:38.870Z,103097.56
2023-02-03T22:11:26.702Z,103093.13
2023-02-03T22:14:14.188Z,103097.47
2023-02-03T22:17:00.770Z,103104.81
2023-02-03T22:19:48.571Z,103101.56
2023-02-03T22:22:35.204Z,103112.72
2023-02-03T22:25:21.938Z,103112.34
2023-02-03T22:28:08.623Z,103118.28
2023-02-03T22:30:55.158Z,103106.59
2023-02-03T22:33:42.558Z,103110.81
2023-02-03T22:36:30.780Z,103114.16
2023-02-03T22:39:17.379Z,103112.94
2023-02-03T22:42:03.959Z,103115.81
2023-02-03T22:44:50.796Z,103127.38
2023-02-03T22:47:37.370Z,103132.53
2023-02-03T22:50:34.628Z,103131.38
2023-02-03T22:53:22.897Z,103131.91
2023-02-03T22:56:09.384Z,103118.94
2023-02-03T22:58:55.940Z,103118.78
2023-02-03T23:01:58.499Z,103124.19
2023-02-03T23:04:45.168Z,103125.34
2023-02-03T23:07:32.107Z,103133.25
2023-02-03T23:10:22.256Z,103137.88
2023-02-03T23:13:08.820Z,103144.47
2023-02-03T23:15:55.663Z,103151.78
2023-02-03T23:18:42.116Z,103156.66
2023-02-03T23:21:28.634Z,103140.72
2023-02-03T23:24:15.203Z,103161.06
2023-02-03T23:27:04.076Z,103161.19
2023-02-03T23:29:50.235Z,103172.63
2023-02-03T23:32:36.853Z,103173.72
2023-02-03T23:35:41.165Z,103171.63
2023-02-03T23:38:27.737Z,103169.63
2023-02-03T23:41:14.221Z,103171.50
2023-02-03T23:44:02.623Z,103168.22
2023-02-03T23:46:49.768Z,103163.84
2023-02-03T23:49:36.124Z,103156.84
2023-02-03T23:52:22.832Z,103155.75
2023-02-03T23:55:12.189Z,103162.47
2023-02-03T23:57:58.691Z,103179.00
